Time;durP1;ratioP1;P1;durP2;ratioP2;P2;SDS_P1;SDS_P2;PMS_P1;PMS_P2;Temp;Humidity;BMP_temperature;BMP_pressure;BME280_temperature;BME280_humidity;BME280_pressure;Samples;Min_cycle;Max_cycle;Signal;HPM_P1;HPM_P2
2021/05/20 00:03:14;;;;;;;1.55;1.30;;;12.30;77.70;;;;;;10134473;28;20496;-53
2021/05/20 00:08:05;;;;;;;1.85;1.33;;;12.40;77.60;;;;;;10132693;28;20036;-60
2021/05/20 00:12:56;;;;;;;1.83;0.82;;;12.40;77.60;;;;;;10138833;28;20994;-55
2021/05/20 00:17:46;;;;;;;1.55;1.08;;;12.40;77.80;;;;;;10135793;28;21294;-58
2021/05/20 00:22:37;;;;;;;0.93;0.70;;;12.40;78.00;;;;;;10147571;28;20096;-55
2021/05/20 00:27:29;;;;;;;2.63;0.90;;;12.30;78.20;;;;;;10146414;28;20622;-59
2021/05/20 00:32:20;;;;;;;1.20;0.75;;;12.20;78.30;;;;;;10144128;28;20082;-58
2021/05/20 00:37:10;;;;;;;1.27;0.73;;;12.20;78.10;;;;;;10155900;28;20365;-59
2021/05/20 00:42:08;;;;;;;2.30;0.98;;;12.20;78.20;;;;;;10134646;28;20040;-56
2021/05/20 00:46:59;;;;;;;1.48;0.98;;;12.20;78.20;;;;;;10146275;28;20047;-57
2021/05/20 00:51:50;;;;;;;2.58;1.00;;;12.10;78.40;;;;;;10141828;28;20177;-57
2021/05/20 00:56:42;;;;;;;1.63;0.85;;;12.20;78.40;;;;;;10140233;28;20262;-55
2021/05/20 01:01:33;;;;;;;1.83;1.05;;;12.20;78.30;;;;;;10134441;28;20028;-61
2021/05/20 01:06:24;;;;;;;1.88;0.73;;;12.10;78.50;;;;;;10146199;28;20032;-56
2021/05/20 01:11:15;;;;;;;1.55;0.90;;;12.00;78.50;;;;;;10153653;28;20032;-56
2021/05/20 01:16:12;;;;;;;0.95;0.85;;;11.90;78.70;;;;;;10134795;28;20025;-55
2021/05/20 01:21:04;;;;;;;1.17;0.88;;;11.90;78.70;;;;;;10140800;28;20468;-57
2021/05/20 01:25:55;;;;;;;1.40;0.75;;;11.90;78.60;;;;;;10132790;28;20063;-54
2021/05/20 01:30:46;;;;;;;0.70;0.60;;;11.90;78.90;;;;;;10152614;28;20629;-55
2021/05/20 01:35:38;;;;;;;0.98;0.60;;;11.80;78.90;;;;;;10148109;28;20047;-54
2021/05/20 01:40:29;;;;;;;1.38;0.77;;;11.90;78.70;;;;;;10144633;28;20169;-53
2021/05/20 01:45:20;;;;;;;1.02;0.90;;;11.90;78.70;;;;;;10136804;28;20052;-58
2021/05/20 01:50:10;;;;;;;1.05;0.57;;;11.80;78.80;;;;;;10145014;28;20036;-59
2021/05/20 01:55:01;;;;;;;0.95;0.80;;;11.80;78.90;;;;;;10140878;28;20027;-62
2021/05/20 01:59:52;;;;;;;1.48;0.82;;;11.80;78.80;;;;;;10145769;28;20027;-57
2021/05/20 02:04:43;;;;;;;1.20;0.88;;;11.70;79.00;;;;;;10142064;28;20032;-55
2021/05/20 02:09:33;;;;;;;2.28;0.75;;;11.70;79.20;;;;;;10143030;28;20200;-57
2021/05/20 02:14:24;;;;;;;2.28;1.38;;;11.90;79.10;;;;;;10136826;28;20374;-54
2021/05/20 02:19:15;;;;;;;2.50;1.80;;;11.80;79.50;;;;;;10142282;28;20483;-59
2021/05/20 02:24:06;;;;;;;3.10;2.42;;;11.70;79.30;;;;;;10147806;28;20063;-58
2021/05/20 02:28:57;;;;;;;5.38;2.65;;;11.70;79.40;;;;;;10134367;28;20036;-58
2021/05/20 02:33:48;;;;;;;5.43;3.05;;;11.80;79.30;;;;;;10140410;28;20035;-56
2021/05/20 02:38:39;;;;;;;6.15;3.72;;;11.80;79.30;;;;;;10146669;28;20024;-54
2021/05/20 02:43:32;;;;;;;3.75;2.90;;;11.90;79.20;;;;;;10133980;28;20063;-57
2021/05/20 02:48:22;;;;;;;6.70;2.38;;;11.90;79.40;;;;;;10128524;28;20036;-54
2021/05/20 02:53:13;;;;;;;2.13;1.42;;;11.80;79.60;;;;;;10136028;28;20032;-55
2021/05/20 02:58:04;;;;;;;2.10;1.10;;;11.80;79.70;;;;;;10141812;28;20983;-58
2021/05/20 03:02:55;;;;;;;1.05;0.85;;;11.80;79.60;;;;;;10133488;28;20031;-54
2021/05/20 03:07:47;;;;;;;2.00;0.70;;;11.80;79.50;;;;;;10132039;28;20043;-57
2021/05/20 03:12:38;;;;;;;0.85;0.65;;;11.80;79.60;;;;;;10139237;28;20040;-59
2021/05/20 03:17:28;;;;;;;1.35;0.73;;;11.70;79.90;;;;;;10128760;28;20443;-53
2021/05/20 03:22:21;;;;;;;0.65;0.43;;;11.70;79.50;;;;;;10139719;28;20040;-57
2021/05/20 03:27:12;;;;;;;1.05;0.60;;;11.60;79.90;;;;;;10140193;28;20192;-57
2021/05/20 03:32:03;;;;;;;0.82;0.40;;;11.60;79.80;;;;;;10148821;28;20069;-58
2021/05/20 03:36:54;;;;;;;0.98;0.57;;;11.70;79.60;;;;;;10134215;28;20032;-52
2021/05/20 03:41:44;;;;;;;0.65;0.50;;;11.60;79.60;;;;;;10142633;28;20119;-55
2021/05/20 03:46:35;;;;;;;0.93;0.60;;;11.60;79.80;;;;;;10136452;28;20040;-57
2021/05/20 03:51:26;;;;;;;1.05;0.60;;;11.60;79.60;;;;;;10140874;28;20032;-58
2021/05/20 03:56:17;;;;;;;0.75;0.60;;;11.70;79.40;;;;;;10135595;28;20036;-56
2021/05/20 04:01:07;;;;;;;0.75;0.40;;;11.60;79.50;;;;;;10143065;28;20031;-56
2021/05/20 04:06:00;;;;;;;0.60;0.52;;;11.50;80.00;;;;;;10148436;28;20067;-53
2021/05/20 04:10:52;;;;;;;1.48;0.57;;;11.50;80.00;;;;;;10146750;28;20399;-57
2021/05/20 04:15:43;;;;;;;1.00;0.70;;;11.60;79.70;;;;;;10148992;28;20179;-59
2021/05/20 04:20:33;;;;;;;0.63;0.57;;;11.60;79.60;;;;;;10137365;28;20549;-55
2021/05/20 04:25:24;;;;;;;0.80;0.52;;;11.70;79.40;;;;;;10139211;28;20040;-57
2021/05/20 04:30:16;;;;;;;0.90;0.70;;;11.60;79.30;;;;;;10130925;28;20590;-54
2021/05/20 04:35:07;;;;;;;0.73;0.63;;;11.70;79.60;;;;;;10140274;28;20101;-53
2021/05/20 04:39:58;;;;;;;0.68;0.60;;;11.80;79.60;;;;;;10143290;28;20101;-56
2021/05/20 04:44:49;;;;;;;1.35;0.80;;;11.80;79.70;;;;;;10145679;28;20273;-57
2021/05/20 04:49:40;;;;;;;1.40;1.20;;;11.80;79.50;;;;;;10152806;27;20243;-54
2021/05/20 04:54:30;;;;;;;0.75;0.75;;;11.80;79.90;;;;;;10142060;28;20603;-59
2021/05/20 04:59:21;;;;;;;1.48;0.80;;;11.80;80.00;;;;;;10132694;28;20150;-54
2021/05/20 05:04:12;;;;;;;1.15;1.05;;;11.80;79.90;;;;;;10144338;28;20039;-57
2021/05/20 05:09:03;;;;;;;0.95;0.70;;;11.90;79.90;;;;;;10146606;28;20343;-63
2021/05/20 05:13:54;;;;;;;1.10;0.65;;;11.90;79.70;;;;;;10143713;28;20039;-59
2021/05/20 05:18:44;;;;;;;1.65;1.00;;;11.90;79.90;;;;;;10136810;28;20136;-57
2021/05/20 05:23:35;;;;;;;2.15;0.85;;;12.00;79.90;;;;;;10146625;28;20066;-55
2021/05/20 05:28:26;;;;;;;2.17;1.00;;;11.90;80.20;;;;;;10131388;28;20035;-58
2021/05/20 05:33:18;;;;;;;2.00;1.13;;;12.00;79.90;;;;;;10147242;28;20024;-57
2021/05/20 05:38:09;;;;;;;2.03;1.10;;;12.10;79.80;;;;;;10145116;28;20143;-55
2021/05/20 05:43:00;;;;;;;1.40;1.13;;;12.00;80.10;;;;;;10147645;28;20039;-59
2021/05/20 05:47:51;;;;;;;2.15;1.02;;;12.10;79.90;;;;;;10133688;28;20413;-55
2021/05/20 05:52:42;;;;;;;1.85;1.00;;;12.20;79.90;;;;;;10143985;28;20437;-52
2021/05/20 05:57:33;;;;;;;1.60;0.95;;;12.10;79.90;;;;;;10138327;28;20635;-56
2021/05/20 06:02:24;;;;;;;2.22;1.02;;;12.10;80.00;;;;;;10140943;28;20523;-54
2021/05/20 06:07:15;;;;;;;2.88;1.35;;;12.20;80.00;;;;;;10130807;28;20406;-58
2021/05/20 06:12:06;;;;;;;2.35;1.33;;;12.20;80.20;;;;;;10135818;28;20051;-57
2021/05/20 06:16:57;;;;;;;1.88;1.23;;;12.20;80.00;;;;;;10144922;28;21026;-57
2021/05/20 06:21:48;;;;;;;1.30;1.02;;;12.20;80.10;;;;;;10130089;28;20039;-59
2021/05/20 06:26:38;;;;;;;3.00;1.50;;;12.30;79.80;;;;;;10138187;28;20023;-61
2021/05/20 06:31:29;;;;;;;1.40;1.10;;;12.40;79.80;;;;;;10135179;28;20039;-61
2021/05/20 06:36:22;;;;;;;1.45;0.82;;;12.50;79.80;;;;;;10140375;28;20038;-59
2021/05/20 06:41:13;;;;;;;2.03;1.40;;;12.40;79.70;;;;;;10138813;28;20036;-58
2021/05/20 06:46:08;;;;;;;3.67;1.13;;;12.30;80.40;;;;;;10138339;28;20056;-59
2021/05/20 06:50:59;;;;;;;2.92;1.00;;;12.10;81.00;;;;;;10145968;28;20809;-59
2021/05/20 06:55:52;;;;;;;1.48;1.17;;;12.10;80.90;;;;;;10132012;28;20345;-59
2021/05/20 07:00:43;;;;;;;4.18;1.58;;;12.20;80.60;;;;;;10125959;28;20073;-60
2021/05/20 07:05:34;;;;;;;1.98;1.30;;;12.50;80.40;;;;;;10132249;28;20483;-58
2021/05/20 07:10:26;;;;;;;2.63;1.20;;;12.70;80.10;;;;;;10135922;28;20043;-63
2021/05/20 07:15:17;;;;;;;1.92;1.33;;;12.70;80.20;;;;;;10127360;28;20363;-61
2021/05/20 07:20:09;;;;;;;4.28;1.50;;;12.80;80.50;;;;;;10131764;28;20521;-58
2021/05/20 07:25:04;;;;;;;3.63;1.60;;;12.90;80.40;;;;;;10145595;28;20033;-59
2021/05/20 07:29:55;;;;;;;2.22;1.25;;;13.20;80.10;;;;;;10143333;28;20178;-57
2021/05/20 07:34:46;;;;;;;2.33;1.30;;;13.60;79.60;;;;;;10133489;28;20038;-59
2021/05/20 07:39:37;;;;;;;3.53;1.52;;;13.80;79.70;;;;;;10122058;28;20171;-60
2021/05/20 07:44:28;;;;;;;1.95;1.25;;;14.00;79.70;;;;;;10138499;28;20097;-60
2021/05/20 07:49:18;;;;;;;4.03;2.20;;;14.00;79.90;;;;;;10138701;28;20525;-61
2021/05/20 07:54:09;;;;;;;1.80;1.33;;;14.20;79.50;;;;;;10134536;28;20472;-56
2021/05/20 07:59:00;;;;;;;4.78;1.67;;;14.10;79.30;;;;;;10127775;28;20039;-57
2021/05/20 08:04:00;;;;;;;1.95;1.42;;;14.10;79.20;;;;;;10133510;28;20043;-56
2021/05/20 08:13:42;;;;;;;3.00;2.00;;;14.50;78.70;;;;;;10137312;28;20031;-59
2021/05/20 08:18:33;;;;;;;2.40;1.80;;;14.60;78.10;;;;;;10130503;28;20072;-58
2021/05/20 08:23:24;;;;;;;2.20;1.45;;;14.70;78.10;;;;;;10138581;28;20348;-58
2021/05/20 08:28:16;;;;;;;1.80;1.50;;;14.80;77.20;;;;;;10141308;28;20048;-60
2021/05/20 08:33:06;;;;;;;2.55;1.75;;;14.80;77.50;;;;;;10135419;28;20036;-56
2021/05/20 08:37:57;;;;;;;3.20;1.58;;;14.90;76.20;;;;;;10140838;28;20040;-57
2021/05/20 08:42:48;;;;;;;3.13;1.35;;;14.90;76.40;;;;;;10138740;28;20683;-56
2021/05/20 08:47:39;;;;;;;2.38;1.50;;;15.20;75.10;;;;;;10145025;28;20082;-62
2021/05/20 08:52:32;;;;;;;2.45;1.33;;;15.40;74.60;;;;;;10137720;28;20046;-59
2021/05/20 08:57:24;;;;;;;2.50;1.20;;;15.30;74.10;;;;;;10139810;28;20074;-61
2021/05/20 09:02:27;;;;;;;2.92;1.50;;;15.30;73.80;;;;;;10140030;28;20036;-59
2021/05/20 09:07:22;;;;;;;2.00;1.30;;;15.00;73.50;;;;;;10145060;28;20226;-57
2021/05/20 09:12:14;;;;;;;3.88;1.95;;;14.80;73.40;;;;;;10139333;28;20036;-61
2021/05/20 09:17:16;;;;;;;4.97;2.22;;;14.60;73.10;;;;;;10138991;28;20258;-60
2021/05/20 09:22:12;;;;;;;2.85;1.73;;;14.90;72.00;;;;;;10137995;28;20056;-61
2021/05/20 09:27:22;;;;;;;3.55;2.40;;;14.90;71.70;;;;;;10137883;28;20044;-60
2021/05/20 09:32:13;;;;;;;2.75;1.55;;;14.60;71.60;;;;;;10139350;28;20040;-61
2021/05/20 09:37:09;;;;;;;3.22;1.63;;;14.80;71.50;;;;;;10135198;28;20050;-55
2021/05/20 09:42:15;;;;;;;4.82;2.65;;;14.70;71.00;;;;;;10138949;28;20110;-60
2021/05/20 09:47:14;;;;;;;2.67;1.92;;;14.60;71.00;;;;;;10135380;28;20445;-60
2021/05/20 09:52:20;;;;;;;3.05;1.90;;;14.60;70.80;;;;;;10135426;28;20501;-57
2021/05/20 09:57:27;;;;;;;3.28;1.80;;;14.80;70.00;;;;;;10136021;28;20040;-59
2021/05/20 10:02:17;;;;;;;3.25;1.58;;;14.90;69.70;;;;;;10132564;28;20202;-59
2021/05/20 10:07:08;;;;;;;1.65;1.35;;;14.80;69.50;;;;;;10136551;28;20167;-58
2021/05/20 10:12:02;;;;;;;2.22;1.38;;;15.10;69.00;;;;;;10143982;28;20044;-54
2021/05/20 10:16:54;;;;;;;5.57;2.58;;;15.50;68.30;;;;;;10129788;28;20038;-55
2021/05/20 10:21:46;;;;;;;3.28;1.60;;;15.90;67.10;;;;;;10143034;28;20349;-56
2021/05/20 10:26:40;;;;;;;3.30;1.83;;;16.10;66.80;;;;;;10132579;28;20391;-55
2021/05/20 10:31:30;;;;;;;2.30;1.45;;;16.40;66.20;;;;;;10139320;28;20073;-59
2021/05/20 10:36:23;;;;;;;3.42;2.00;;;16.40;66.90;;;;;;10136673;28;20828;-58
2021/05/20 10:41:19;;;;;;;2.70;1.50;;;16.20;66.40;;;;;;10134286;28;20093;-58
2021/05/20 10:46:15;;;;;;;1.92;1.70;;;15.70;66.90;;;;;;10138106;28;20305;-60
2021/05/20 10:51:15;;;;;;;2.20;1.30;;;15.30;67.10;;;;;;10136150;28;20145;-62
2021/05/20 10:56:26;;;;;;;1.80;1.42;;;15.10;65.80;;;;;;10137152;28;20055;-58
2021/05/20 11:01:20;;;;;;;2.47;1.88;;;15.30;64.70;;;;;;10131711;28;20736;-63
2021/05/20 11:06:11;;;;;;;2.22;1.52;;;15.20;65.50;;;;;;10135841;28;20035;-59
2021/05/20 11:11:01;;;;;;;1.77;1.30;;;15.30;65.20;;;;;;10132507;28;20063;-57
2021/05/20 11:16:11;;;;;;;1.85;1.30;;;15.30;65.00;;;;;;10132652;28;20032;-62
2021/05/20 11:21:02;;;;;;;3.25;1.58;;;15.20;64.50;;;;;;10128684;28;22135;-64
2021/05/20 11:26:02;;;;;;;2.72;1.33;;;15.30;64.40;;;;;;10136455;28;20525;-58
2021/05/20 11:31:00;;;;;;;2.55;1.17;;;15.40;63.80;;;;;;10130959;28;20047;-59
2021/05/20 11:40:51;;;;;;;1.92;1.10;;;15.80;62.80;;;;;;10130416;28;20036;-53
2021/05/20 11:45:42;;;;;;;1.65;1.05;;;16.10;62.40;;;;;;10134679;28;20059;-59
2021/05/20 11:50:34;;;;;;;1.20;0.95;;;16.40;61.90;;;;;;10129897;28;20032;-58
2021/05/20 11:55:25;;;;;;;1.73;1.13;;;17.10;60.70;;;;;;10135090;28;20760;-60
2021/05/20 12:00:16;;;;;;;1.63;1.20;;;17.00;60.90;;;;;;10135908;28;20126;-56
2021/05/20 12:05:08;;;;;;;1.33;1.23;;;17.40;60.10;;;;;;10142805;28;20512;-61
2021/05/20 12:10:19;;;;;;;1.10;1.00;;;17.60;59.60;;;;;;10147542;28;20043;-60
2021/05/20 12:15:20;;;;;;;2.13;1.25;;;17.80;58.20;;;;;;10140413;28;20034;-60
2021/05/20 12:20:12;;;;;;;1.13;1.02;;;18.10;57.90;;;;;;10142330;28;20032;-58
2021/05/20 12:25:12;;;;;;;1.25;0.82;;;19.10;58.00;;;;;;10135103;28;20028;-59
2021/05/20 12:30:18;;;;;;;1.17;1.08;;;18.90;56.50;;;;;;10138713;28;20553;-61
2021/05/20 12:35:19;;;;;;;1.35;1.00;;;19.30;56.20;;;;;;10147038;28;20032;-59
2021/05/20 12:40:13;;;;;;;2.13;0.90;;;19.40;56.10;;;;;;10137460;28;20029;-55
2021/05/20 12:45:05;;;;;;;1.80;0.90;;;20.00;55.50;;;;;;10146766;28;20077;-56
2021/05/20 12:49:56;;;;;;;1.33;1.08;;;20.90;56.00;;;;;;10133814;28;20150;-56
2021/05/20 12:54:47;;;;;;;1.65;1.15;;;21.80;54.90;;;;;;10139085;28;20109;-54
2021/05/20 12:59:39;;;;;;;2.88;0.85;;;23.40;52.60;;;;;;10140338;28;20335;-62
2021/05/20 13:04:32;;;;;;;1.52;0.90;;;23.70;50.80;;;;;;10136122;28;20103;-57
2021/05/20 13:09:32;;;;;;;1.88;1.00;;;24.40;49.00;;;;;;10139384;28;20778;-58
2021/05/20 13:14:29;;;;;;;0.70;0.63;;;25.20;45.20;;;;;;10140289;28;20035;-57
2021/05/20 13:24:18;;;;;;;1.30;0.82;;;24.50;46.50;;;;;;10143237;28;20167;-60
2021/05/20 13:29:09;;;;;;;1.60;0.90;;;27.10;42.90;;;;;;10128859;27;20653;-57
2021/05/20 13:34:00;;;;;;;1.45;0.57;;;26.40;40.90;;;;;;10133266;28;20200;-56
2021/05/20 13:38:53;;;;;;;1.90;0.80;;;24.80;42.20;;;;;;10135226;28;20043;-55
2021/05/20 13:43:44;;;;;;;3.63;0.98;;;23.10;43.80;;;;;;10144041;28;20079;-57
2021/05/20 13:48:35;;;;;;;0.60;0.60;;;22.40;44.20;;;;;;10134587;28;20413;-56
2021/05/20 13:53:26;;;;;;;0.77;0.70;;;23.60;42.10;;;;;;10132415;28;20035;-58
2021/05/20 13:58:16;;;;;;;1.65;0.80;;;23.30;41.60;;;;;;10131305;28;20282;-57
2021/05/20 14:03:10;;;;;;;0.82;0.70;;;23.70;41.00;;;;;;10139042;28;20063;-57
2021/05/20 14:08:01;;;;;;;0.87;0.80;;;22.30;41.70;;;;;;10133128;28;20040;-57
2021/05/20 14:12:51;;;;;;;1.00;0.70;;;22.30;42.50;;;;;;10143065;28;20919;-58
2021/05/20 14:17:46;;;;;;;0.65;0.60;;;23.10;41.10;;;;;;10138220;28;20044;-57
2021/05/20 14:22:38;;;;;;;1.35;0.70;;;23.50;40.20;;;;;;10131453;28;20480;-58
2021/05/20 14:27:29;;;;;;;0.98;0.70;;;22.60;41.00;;;;;;10134729;28;20605;-58
2021/05/20 14:32:22;;;;;;;1.02;0.60;;;22.20;41.40;;;;;;10129156;28;20032;-56
2021/05/20 14:37:13;;;;;;;1.98;0.80;;;21.60;41.50;;;;;;10141321;28;20073;-59
2021/05/20 14:42:04;;;;;;;2.10;1.00;;;21.70;41.50;;;;;;10133573;28;20024;-55
2021/05/20 14:46:55;;;;;;;2.75;1.30;;;21.80;41.20;;;;;;10137043;28;20487;-54
2021/05/20 14:51:46;;;;;;;1.08;0.80;;;21.80;41.70;;;;;;10138050;28;20043;-55
2021/05/20 15:06:55;;;;;;;0.70;0.60;;;24.30;39.80;;;;;;10134922;28;21445;-57
2021/05/20 15:11:54;;;;;;;1.60;1.10;;;23.30;41.50;;;;;;10129280;28;20076;-60
2021/05/20 15:16:48;;;;;;;1.73;1.15;;;22.70;43.10;;;;;;10128820;28;20032;-60
2021/05/20 15:21:39;;;;;;;1.45;0.90;;;21.40;43.80;;;;;;10138451;28;20626;-60
2021/05/20 15:26:29;;;;;;;0.50;0.50;;;21.00;44.20;;;;;;10129380;28;20149;-59
2021/05/20 15:31:23;;;;;;;1.23;1.08;;;22.40;42.40;;;;;;10134413;28;20422;-58
2021/05/20 15:36:14;;;;;;;1.37;1.10;;;22.50;41.90;;;;;;10129503;28;20427;-61
2021/05/20 15:41:05;;;;;;;1.48;0.70;;;23.60;40.90;;;;;;10138313;28;20057;-59
2021/05/20 15:46:03;;;;;;;1.77;0.70;;;23.90;40.20;;;;;;10134360;28;20286;-61
2021/05/20 15:50:54;;;;;;;1.95;1.27;;;23.00;41.40;;;;;;10129519;28;20588;-61
2021/05/20 15:55:45;;;;;;;1.05;0.82;;;22.50;41.80;;;;;;10128358;28;20031;-59
2021/05/20 16:00:35;;;;;;;2.13;0.70;;;22.10;42.10;;;;;;10135078;28;20031;-60
2021/05/20 16:05:27;;;;;;;1.85;0.80;;;22.10;41.80;;;;;;10128880;28;20035;-58
2021/05/20 16:15:30;;;;;;;1.50;0.60;;;21.80;42.20;;;;;;10124022;28;20157;-60
2021/05/20 16:20:23;;;;;;;2.53;0.82;;;21.10;42.90;;;;;;10132176;28;20036;-57
2021/05/20 16:40:24;;;;;;;0.85;0.70;;;19.90;44.20;;;;;;10141906;28;20564;-57
2021/05/20 16:45:15;;;;;;;1.33;0.77;;;19.70;44.50;;;;;;10133317;28;20395;-55
2021/05/20 16:50:06;;;;;;;2.25;0.70;;;19.60;44.70;;;;;;10143755;28;20542;-58
2021/05/20 16:55:07;;;;;;;2.17;1.00;;;19.50;44.80;;;;;;10152387;28;20062;-55
2021/05/20 16:59:57;;;;;;;3.75;1.70;;;19.30;45.10;;;;;;10133512;28;20207;-58
2021/05/20 17:04:48;;;;;;;3.45;1.60;;;19.20;45.40;;;;;;10138724;28;20035;-56
2021/05/20 17:09:39;;;;;;;5.32;2.45;;;19.10;45.70;;;;;;10140262;28;20043;-58
2021/05/20 17:14:30;;;;;;;2.72;1.02;;;18.90;45.70;;;;;;10138570;28;20391;-56
2021/05/20 17:19:20;;;;;;;0.80;0.60;;;19.00;46.10;;;;;;10140541;28;20563;-56
2021/05/20 17:24:11;;;;;;;2.63;1.30;;;18.80;46.40;;;;;;10149504;28;20047;-57
2021/05/20 17:29:03;;;;;;;1.08;0.90;;;18.70;46.60;;;;;;10133646;28;20071;-55
2021/05/20 17:33:53;;;;;;;1.13;0.73;;;18.60;46.90;;;;;;10141840;27;20039;-54
2021/05/20 17:38:44;;;;;;;1.58;0.77;;;18.60;47.00;;;;;;10145605;28;20465;-53
2021/05/20 17:43:35;;;;;;;2.35;1.25;;;18.50;47.30;;;;;;10141359;28;20037;-56
2021/05/20 17:48:30;;;;;;;2.60;1.45;;;18.40;47.50;;;;;;10142671;28;20100;-55
2021/05/20 17:53:25;;;;;;;2.25;0.88;;;18.30;48.00;;;;;;10133512;27;20131;-60
2021/05/20 17:58:16;;;;;;;3.45;1.35;;;18.30;48.00;;;;;;10129946;28;20032;-55
2021/05/20 18:03:06;;;;;;;1.95;1.30;;;18.20;48.30;;;;;;10143406;28;20576;-56
2021/05/20 18:07:58;;;;;;;1.65;1.25;;;18.20;48.30;;;;;;10132118;28;20040;-57
2021/05/20 18:12:57;;;;;;;1.00;0.90;;;18.10;48.50;;;;;;10133813;28;20390;-56
2021/05/20 18:22:42;;;;;;;3.45;1.67;;;18.00;48.90;;;;;;10147638;28;20048;-58
2021/05/20 18:27:33;;;;;;;1.63;1.20;;;18.00;49.10;;;;;;10146283;28;20031;-54
2021/05/20 18:32:24;;;;;;;2.42;1.40;;;17.90;49.10;;;;;;10142626;28;20048;-56
2021/05/20 18:37:16;;;;;;;2.45;1.42;;;17.80;49.20;;;;;;10135167;28;20593;-59
2021/05/20 18:42:10;;;;;;;3.28;1.70;;;17.80;49.30;;;;;;10148022;28;20594;-57
2021/05/20 18:47:01;;;;;;;1.83;0.90;;;17.70;49.30;;;;;;10142044;28;20060;-58
2021/05/20 18:51:57;;;;;;;2.17;1.23;;;17.70;49.30;;;;;;10148354;28;20047;-60
2021/05/20 18:56:49;;;;;;;3.80;1.65;;;17.60;49.40;;;;;;10130720;28;20028;-56
2021/05/20 19:01:41;;;;;;;3.83;1.60;;;17.60;49.60;;;;;;10138587;28;20042;-53
2021/05/20 19:06:32;;;;;;;1.65;1.27;;;17.40;49.70;;;;;;10125464;28;20044;-54
2021/05/20 19:11:24;;;;;;;3.10;0.82;;;17.40;49.80;;;;;;10128880;28;20040;-57
2021/05/20 19:16:15;;;;;;;2.75;1.60;;;17.40;50.00;;;;;;10135808;28;20036;-57
2021/05/20 19:21:14;;;;;;;3.13;1.73;;;17.30;50.10;;;;;;10137762;28;21482;-55
2021/05/20 19:26:05;;;;;;;2.53;1.30;;;17.30;50.40;;;;;;10133397;28;20135;-57
2021/05/20 19:30:56;;;;;;;4.15;1.60;;;17.30;50.40;;;;;;10138107;28;20047;-59
2021/05/20 19:35:48;;;;;;;2.72;1.75;;;17.30;50.50;;;;;;10128832;28;20530;-57
2021/05/20 19:40:39;;;;;;;3.17;1.42;;;17.30;51.00;;;;;;10126558;28;20035;-59
2021/05/20 19:45:30;;;;;;;2.38;1.58;;;17.10;51.20;;;;;;10116844;28;20051;-58
2021/05/20 20:05:10;;;;;;;3.30;1.88;;;16.80;52.30;;;;;;10135387;28;20047;-56
2021/05/20 20:10:01;;;;;;;3.65;1.90;;;16.60;52.50;;;;;;10127508;28;20113;-54
2021/05/20 20:14:52;;;;;;;2.42;1.20;;;16.60;52.60;;;;;;10120297;28;20043;-57
2021/05/20 20:19:43;;;;;;;2.17;1.48;;;16.50;52.90;;;;;;10138272;28;20028;-59
2021/05/20 20:24:56;;;;;;;4.05;1.30;;;16.50;53.30;;;;;;10139711;28;20504;-58
2021/05/20 20:29:45;;;;;;;3.30;1.48;;;16.50;53.50;;;;;;10134542;28;20479;-58
2021/05/20 20:34:50;;;;;;;4.20;1.83;;;16.40;53.90;;;;;;10138156;28;20032;-59
2021/05/20 20:44:54;;;;;;;1.83;1.10;;;16.20;54.30;;;;;;10139819;28;20449;-56
2021/05/20 20:49:54;;;;;;;2.03;1.10;;;16.20;54.50;;;;;;10145717;28;20900;-55
2021/05/20 20:54:44;;;;;;;2.22;0.95;;;16.10;54.70;;;;;;10139914;28;20066;-62
2021/05/20 20:59:35;;;;;;;3.58;1.50;;;16.10;54.90;;;;;;10143887;28;20028;-58
2021/05/20 21:04:26;;;;;;;1.02;0.90;;;16.00;54.90;;;;;;10142531;28;20031;-54
2021/05/20 21:09:17;;;;;;;1.60;1.05;;;16.00;55.00;;;;;;10151144;28;20066;-55
2021/05/20 21:14:07;;;;;;;1.63;0.90;;;15.90;55.20;;;;;;10139148;28;20339;-58
2021/05/20 21:18:58;;;;;;;2.08;1.17;;;15.90;55.30;;;;;;10143679;28;20460;-57
2021/05/20 21:23:49;;;;;;;2.33;0.70;;;15.80;55.40;;;;;;10141932;28;20535;-54
2021/05/20 21:28:40;;;;;;;2.03;0.90;;;15.70;55.60;;;;;;10140647;28;20112;-56
2021/05/20 21:33:30;;;;;;;3.05;1.42;;;15.70;55.70;;;;;;10141186;28;20552;-59
2021/05/20 21:38:21;;;;;;;1.58;0.88;;;15.60;55.80;;;;;;10131344;28;20138;-54
2021/05/20 21:43:12;;;;;;;1.85;0.85;;;15.60;56.00;;;;;;10147336;28;20194;-55
2021/05/20 21:48:03;;;;;;;1.80;0.98;;;15.50;56.20;;;;;;10128818;28;20047;-61
2021/05/20 21:52:54;;;;;;;2.28;0.73;;;15.50;57.00;;;;;;10132017;28;20447;-58
2021/05/20 21:57:45;;;;;;;2.13;1.30;;;15.50;56.50;;;;;;10132888;28;20075;-56
2021/05/20 22:02:36;;;;;;;1.48;1.00;;;15.50;56.50;;;;;;10137223;28;20031;-54
2021/05/20 22:07:26;;;;;;;2.47;1.00;;;15.50;56.50;;;;;;10134549;28;20038;-57
2021/05/20 22:17:11;;;;;;;1.02;0.75;;;15.50;56.80;;;;;;10143259;28;20517;-57
2021/05/20 22:22:02;;;;;;;1.35;0.85;;;15.30;56.90;;;;;;10139069;28;20015;-61
2021/05/20 22:32:07;;;;;;;1.80;1.00;;;15.30;56.90;;;;;;10136696;28;20052;-56
2021/05/20 22:36:58;;;;;;;1.33;0.85;;;15.30;56.90;;;;;;10145119;28;20166;-55
2021/05/20 22:41:50;;;;;;;2.15;1.17;;;15.20;57.20;;;;;;10139962;28;20039;-57
2021/05/20 22:46:40;;;;;;;1.25;0.88;;;15.10;57.20;;;;;;10127721;28;20203;-55
2021/05/20 22:51:31;;;;;;;1.25;1.00;;;15.10;57.20;;;;;;10139534;28;20132;-56
2021/05/20 22:56:22;;;;;;;1.80;0.82;;;15.00;57.50;;;;;;10132793;28;20047;-56
2021/05/20 23:01:13;;;;;;;1.45;0.90;;;15.10;57.60;;;;;;10136898;28;20498;-57
2021/05/20 23:06:04;;;;;;;1.27;0.75;;;15.00;57.90;;;;;;10136631;28;20020;-53
2021/05/20 23:10:54;;;;;;;1.48;0.70;;;15.00;57.80;;;;;;10133008;28;20035;-53
2021/05/20 23:15:45;;;;;;;1.20;0.85;;;14.90;58.20;;;;;;10132332;28;20676;-54
2021/05/20 23:20:37;;;;;;;1.67;1.10;;;14.90;58.20;;;;;;10130727;28;20092;-52
2021/05/20 23:25:27;;;;;;;1.65;1.10;;;14.90;58.30;;;;;;10127837;28;20453;-55
2021/05/20 23:30:19;;;;;;;1.65;0.90;;;14.90;58.40;;;;;;10142660;28;20039;-54
2021/05/20 23:35:10;;;;;;;2.35;1.00;;;14.90;58.50;;;;;;10134704;28;20222;-56
2021/05/20 23:40:01;;;;;;;3.55;1.10;;;14.90;58.50;;;;;;10133346;28;20549;-57
2021/05/20 23:44:52;;;;;;;1.98;1.00;;;14.80;58.80;;;;;;10131926;28;20254;-55
2021/05/20 23:49:43;;;;;;;1.00;0.80;;;14.80;58.80;;;;;;10136869;28;20571;-55
2021/05/20 23:54:33;;;;;;;2.30;1.02;;;14.90;58.80;;;;;;10137169;28;20055;-58
2021/05/20 23:59:24;;;;;;;1.20;0.82;;;14.90;58.90;;;;;;10143059;28;20472;-55
